createdAt,value
2018-11-28T00:01:21.764Z,8.43
2018-11-28T00:03:54.478Z,7.20
2018-11-28T00:06:29.098Z,9.93
2018-11-28T00:09:02.313Z,11.07
2018-11-28T00:11:36.668Z,12.07
2018-11-28T00:14:10.827Z,7.90
2018-11-28T00:16:47.568Z,6.97
2018-11-28T00:19:22.349Z,11.17
2018-11-28T00:21:55.832Z,9.67
2018-11-28T00:24:31.443Z,9.40
2018-11-28T00:27:04.765Z,9.90
2018-11-28T00:29:38.940Z,7.47
2018-11-28T00:32:14.681Z,9.77
2018-11-28T00:34:48.834Z,8.23
2018-11-28T00:37:22.359Z,10.13
2018-11-28T00:39:56.916Z,9.43
2018-11-28T00:42:32.902Z,11.67
2018-11-28T00:45:06.961Z,10.23
2018-11-28T00:47:41.833Z,7.63
2018-11-28T00:50:20.021Z,14.20
2018-11-28T00:52:55.724Z,9.80
2018-11-28T00:55:31.094Z,7.70
2018-11-28T00:58:05.342Z,6.70
2018-11-28T01:00:40.923Z,11.90
2018-11-28T01:03:14.454Z,10.57
2018-11-28T01:05:48.667Z,10.87
2018-11-28T01:08:22.894Z,10.90
2018-11-28T01:10:57.967Z,9.10
2018-11-28T01:13:33.423Z,12.40
2018-11-28T01:16:07.795Z,11.47
2018-11-28T01:18:42.322Z,13.50
2018-11-28T01:21:16.972Z,13.83
2018-11-28T01:26:39.015Z,15.33
2018-11-28T01:29:14.772Z,14.40
2018-11-28T01:31:50.364Z,13.63
2018-11-28T01:34:24.145Z,15.33
2018-11-28T01:37:01.199Z,9.73
2018-11-28T01:39:40.930Z,14.47
2018-11-28T01:42:14.709Z,8.97
2018-11-28T01:44:48.371Z,6.27
2018-11-28T01:47:22.364Z,12.93
2018-11-28T01:56:47.720Z,10.37
2018-11-28T01:59:23.074Z,4.27
2018-11-28T02:01:56.928Z,4.63
2018-11-28T02:04:32.420Z,7.70
2018-11-28T02:07:07.552Z,11.07
2018-11-28T02:09:43.568Z,11.80
2018-11-28T02:12:18.745Z,10.00
2018-11-28T02:14:52.218Z,11.70
2018-11-28T02:17:26.694Z,11.10
2018-11-28T02:20:01.805Z,14.33
2018-11-28T02:22:38.187Z,12.10
2018-11-28T02:25:13.984Z,7.60
2018-11-28T02:27:50.137Z,8.00
2018-11-28T02:30:24.788Z,7.07
2018-11-28T02:32:59.775Z,4.07
2018-11-28T02:35:34.087Z,8.10
2018-11-28T02:38:07.296Z,3.63
2018-11-28T02:40:50.451Z,7.13
2018-11-28T02:43:25.511Z,4.47
2018-11-28T02:46:10.318Z,3.97
2018-11-28T02:48:45.264Z,4.53
2018-11-28T02:51:19.833Z,4.90
2018-11-28T02:53:57.240Z,4.60
2018-11-28T02:56:33.237Z,4.27
2018-11-28T02:59:07.772Z,3.30
2018-11-28T03:01:41.881Z,4.80
2018-11-28T03:04:16.870Z,4.60
2018-11-28T03:06:51.460Z,3.83
2018-11-28T03:09:26.589Z,4.50
2018-11-28T03:12:11.772Z,6.53
2018-11-28T03:14:50.827Z,7.33
2018-11-28T03:17:27.355Z,6.00
2018-11-28T03:20:01.148Z,14.30
2018-11-28T03:22:35.212Z,12.07
2018-11-28T03:25:12.493Z,7.13
2018-11-28T03:27:48.699Z,5.27
2018-11-28T03:30:23.146Z,6.83
2018-11-28T03:32:58.197Z,8.50
2018-11-28T03:35:32.628Z,8.77
2018-11-28T03:38:06.966Z,11.10
2018-11-28T03:40:45.434Z,8.50
2018-11-28T03:43:19.850Z,6.13
2018-11-28T03:45:53.982Z,9.23
2018-11-28T03:48:29.840Z,10.27
2018-11-28T03:51:02.822Z,5.63
2018-11-28T03:53:36.375Z,12.73
2018-11-28T03:56:09.136Z,8.10
2018-11-28T03:58:42.895Z,4.70
2018-11-28T04:01:16.895Z,6.07
2018-11-28T04:03:53.616Z,9.57
2018-11-28T04:06:28.984Z,6.10
2018-11-28T04:09:05.464Z,8.03
2018-11-28T04:11:43.956Z,9.17
2018-11-28T04:14:18.651Z,7.00
2018-11-28T04:16:55.387Z,5.50
2018-11-28T04:43:52.401Z,11.33
2018-11-28T04:46:27.689Z,9.67
2018-11-28T04:49:01.160Z,13.80
2018-11-28T04:51:37.638Z,14.40
2018-11-28T04:54:16.128Z,7.43
2018-11-28T04:56:52.282Z,13.10
2018-11-28T04:59:26.767Z,9.03
2018-11-28T05:02:01.892Z,15.50
2018-11-28T05:04:37.967Z,10.93
2018-11-28T05:07:29.575Z,10.63
2018-11-28T05:10:05.605Z,12.67
2018-11-28T05:12:41.242Z,12.37
2018-11-28T05:15:19.783Z,16.60
2018-11-28T05:17:56.126Z,9.53
2018-11-28T05:20:34.350Z,12.40
2018-11-28T05:23:16.186Z,9.47
2018-11-28T05:25:52.028Z,8.53
2018-11-28T05:28:26.375Z,7.87
2018-11-28T05:31:05.356Z,10.93
2018-11-28T05:33:39.135Z,11.23
2018-11-28T05:36:14.304Z,6.67
2018-11-28T05:38:51.455Z,9.90
2018-11-28T05:41:25.753Z,10.03
2018-11-28T05:44:00.381Z,9.03
2018-11-28T05:46:38.789Z,8.43
2018-11-28T05:49:15.187Z,6.73
2018-11-28T05:51:48.166Z,6.93
2018-11-28T05:54:22.682Z,8.50
2018-11-28T05:56:56.144Z,12.73
2018-11-28T05:59:29.744Z,8.97
2018-11-28T06:02:03.589Z,10.67
2018-11-28T06:04:36.688Z,7.63
2018-11-28T06:07:11.686Z,13.90
2018-11-28T06:09:45.966Z,9.43
2018-11-28T06:12:20.600Z,5.60
2018-11-28T06:14:55.107Z,7.63
2018-11-28T06:17:32.510Z,9.67
2018-11-28T06:20:08.709Z,6.13
2018-11-28T06:22:44.026Z,7.07
2018-11-28T06:25:19.666Z,5.83
2018-11-28T06:27:52.839Z,5.97
2018-11-28T06:30:27.580Z,5.07
2018-11-28T06:33:01.429Z,7.70
2018-11-28T06:35:34.990Z,8.40
2018-11-28T06:38:08.523Z,5.70
2018-11-28T06:40:43.692Z,7.20
2018-11-28T06:43:16.902Z,4.37
2018-11-28T06:45:51.965Z,3.80
2018-11-28T06:48:26.257Z,7.87
2018-11-28T06:51:00.894Z,5.37
2018-11-28T06:53:34.500Z,7.90
2018-11-28T06:56:16.057Z,4.37
2018-11-28T06:59:02.408Z,5.50
2018-11-28T07:01:37.671Z,5.77
2018-11-28T07:04:11.240Z,2.67
2018-11-28T07:06:48.149Z,6.80
2018-11-28T07:09:22.203Z,5.03
2018-11-28T07:12:01.968Z,5.43
2018-11-28T07:14:38.549Z,3.70
2018-11-28T07:19:51.710Z,5.47
2018-11-28T07:22:28.627Z,4.60
2018-11-28T07:25:03.335Z,5.33
2018-11-28T07:34:25.997Z,14.27
2018-11-28T07:36:59.596Z,6.60
2018-11-28T07:39:33.934Z,6.13
2018-11-28T07:42:11.399Z,6.43
2018-11-28T07:44:47.332Z,3.20
2018-11-28T07:47:20.832Z,7.17
2018-11-28T07:49:55.318Z,4.73
2018-11-28T07:52:31.522Z,5.40
2018-11-28T07:55:07.366Z,8.87
2018-11-28T07:57:42.270Z,4.93
2018-11-28T08:00:17.272Z,5.93
2018-11-28T08:02:51.171Z,6.17
2018-11-28T08:05:27.614Z,7.03
2018-11-28T08:08:02.303Z,4.27
2018-11-28T08:10:37.203Z,6.63
2018-11-28T08:13:12.575Z,5.37
2018-11-28T08:15:47.269Z,7.20
2018-11-28T08:18:23.460Z,6.47
2018-11-28T08:20:57.169Z,7.23
2018-11-28T08:23:32.582Z,7.07
2018-11-28T08:26:07.069Z,6.97
2018-11-28T08:28:40.599Z,3.93
2018-11-28T08:31:14.134Z,5.73
2018-11-28T08:33:48.759Z,5.53
2018-11-28T08:36:23.624Z,3.53
2018-11-28T08:38:58.822Z,3.97
2018-11-28T08:41:38.645Z,5.67
2018-11-28T08:44:14.861Z,6.70
2018-11-28T08:46:48.813Z,5.10
2018-11-28T08:49:22.622Z,5.40
2018-11-28T08:51:59.796Z,5.87
2018-11-28T08:54:35.328Z,7.20
2018-11-28T08:57:11.665Z,2.73
2018-11-28T08:59:46.209Z,3.83
2018-11-28T09:02:21.477Z,6.30
2018-11-28T09:04:57.298Z,4.57
2018-11-28T09:07:31.545Z,3.27
2018-11-28T09:10:05.854Z,5.23
2018-11-28T09:12:42.003Z,7.13
2018-11-28T09:15:19.624Z,8.23
2018-11-28T09:17:56.141Z,8.07
2018-11-28T09:20:44.816Z,3.57
2018-11-28T09:23:28.278Z,6.03
2018-11-28T09:26:04.237Z,3.23
2018-11-28T09:28:38.294Z,6.60
2018-11-28T09:31:12.914Z,4.50
2018-11-28T09:33:49.162Z,4.90
2018-11-28T09:36:22.980Z,5.43
2018-11-28T09:39:00.188Z,3.63
2018-11-28T09:41:35.418Z,7.53
2018-11-28T09:44:08.547Z,4.03
2018-11-28T09:46:42.429Z,8.53
2018-11-28T09:49:15.752Z,6.83
2018-11-28T09:51:50.964Z,5.00
2018-11-28T09:54:25.959Z,3.67
2018-11-28T09:57:00.455Z,5.43
2018-11-28T09:59:34.439Z,6.53
2018-11-28T10:02:08.330Z,4.60
2018-11-28T10:04:41.885Z,2.80
2018-11-28T10:07:17.671Z,4.77
2018-11-28T10:09:52.545Z,2.90
2018-11-28T10:12:27.384Z,2.50
2018-11-28T10:15:01.502Z,3.53
2018-11-28T10:17:36.837Z,4.13
2018-11-28T10:20:12.001Z,4.80
2018-11-28T10:22:53.432Z,4.67
2018-11-28T10:34:21.371Z,4.30
2018-11-28T10:36:56.888Z,3.90
2018-11-28T10:39:30.840Z,5.00
2018-11-28T10:42:06.050Z,6.00
2018-11-28T10:44:39.950Z,4.20
2018-11-28T10:47:13.553Z,7.83
2018-11-28T10:49:48.288Z,2.77
2018-11-28T10:52:22.872Z,4.50
2018-11-28T10:55:02.679Z,3.57
2018-11-28T10:57:45.991Z,3.37
2018-11-28T11:00:27.313Z,1.57
2018-11-28T11:03:04.288Z,3.13
2018-11-28T11:05:41.682Z,3.13
2018-11-28T11:08:18.702Z,5.77
2018-11-28T11:10:59.560Z,4.13
2018-11-28T11:13:40.329Z,3.10
2018-11-28T11:16:19.013Z,4.10
2018-11-28T11:18:52.474Z,2.67
2018-11-28T11:21:27.785Z,3.27
2018-11-28T11:24:01.668Z,2.00
2018-11-28T11:26:35.257Z,3.63
2018-11-28T11:29:09.014Z,6.27
2018-11-28T11:31:43.269Z,2.03
2018-11-28T11:34:16.712Z,2.27
2018-11-28T11:36:50.440Z,3.13
2018-11-28T11:39:25.566Z,2.30
2018-11-28T11:41:59.126Z,2.87
2018-11-28T11:44:33.624Z,3.80
2018-11-28T11:47:07.595Z,1.93
2018-11-28T11:49:41.522Z,4.93
2018-11-28T11:52:16.790Z,1.60
2018-11-28T11:54:50.889Z,1.63
2018-11-28T11:57:25.609Z,3.17
2018-11-28T11:59:59.418Z,4.67
2018-11-28T12:02:33.241Z,3.67
2018-11-28T12:05:06.509Z,3.67
2018-11-28T12:07:41.368Z,2.30
2018-11-28T12:10:15.725Z,4.37
2018-11-28T12:12:51.838Z,2.73
2018-11-28T12:15:24.395Z,3.00
2018-11-28T12:17:58.293Z,3.97
2018-11-28T12:20:42.975Z,4.23
2018-11-28T12:23:16.668Z,1.83
2018-11-28T12:25:51.355Z,3.43
2018-11-28T12:28:25.451Z,1.87
2018-11-28T12:30:59.812Z,4.77
2018-11-28T12:33:34.367Z,2.07
2018-11-28T12:36:08.086Z,2.77
2018-11-28T12:38:44.718Z,2.50
2018-11-28T12:41:18.662Z,2.87
2018-11-28T12:43:52.343Z,2.37
2018-11-28T12:46:27.422Z,1.30
2018-11-28T12:49:01.638Z,2.43
2018-11-28T12:51:35.410Z,2.87
2018-11-28T12:54:09.253Z,1.23
2018-11-28T12:56:43.038Z,2.03
2018-11-28T12:59:18.434Z,1.47
2018-11-28T13:01:53.830Z,3.23
2018-11-28T13:04:28.444Z,4.97
2018-11-28T13:07:08.719Z,2.13
2018-11-28T13:09:43.497Z,4.73
2018-11-28T13:12:17.402Z,2.17
2018-11-28T13:14:51.631Z,2.37
2018-11-28T13:17:25.079Z,3.30
2018-11-28T13:19:59.129Z,4.77
2018-11-28T13:22:32.667Z,2.87
2018-11-28T13:25:06.477Z,2.53
2018-11-28T13:27:40.542Z,3.73
2018-11-28T13:30:18.171Z,1.33
2018-11-28T13:32:52.680Z,4.53
2018-11-28T13:35:28.623Z,1.67
2018-11-28T13:38:06.242Z,2.27
2018-11-28T13:40:39.517Z,1.53
2018-11-28T13:43:16.061Z,2.00
2018-11-28T13:45:53.351Z,1.47
2018-11-28T13:48:28.151Z,2.67
2018-11-28T13:51:01.189Z,1.63
2018-11-28T13:53:37.392Z,1.70
2018-11-28T13:58:46.340Z,0.57
2018-11-28T14:01:19.627Z,2.73
2018-11-28T14:03:53.318Z,1.67
2018-11-28T14:06:27.538Z,1.30
2018-11-28T14:09:01.345Z,2.50
2018-11-28T14:11:37.945Z,3.20
2018-11-28T14:14:12.362Z,2.57
2018-11-28T14:16:48.026Z,2.37
2018-11-28T14:19:22.519Z,1.60
2018-11-28T14:21:57.109Z,0.87
2018-11-28T14:24:36.312Z,1.30
2018-11-28T14:27:15.690Z,3.63
2018-11-28T14:29:51.159Z,0.67
2018-11-28T14:32:24.531Z,2.03
2018-11-28T14:34:58.245Z,1.10
2018-11-28T14:37:35.755Z,1.53
2018-11-28T14:46:18.402Z,1.10
2018-11-28T14:49:08.574Z,1.07
2018-11-28T14:52:28.338Z,0.90
2018-11-28T14:55:21.357Z,0.83
2018-11-28T14:57:54.987Z,1.20
2018-11-28T15:00:30.182Z,1.27
2018-11-28T15:03:33.117Z,1.00
2018-11-28T15:06:31.400Z,3.13
2018-11-28T15:09:09.990Z,1.73
2018-11-28T15:11:46.823Z,2.97
2018-11-28T15:14:20.432Z,0.63
2018-11-28T15:16:54.068Z,2.17
2018-11-28T15:19:28.448Z,2.07
2018-11-28T15:22:02.193Z,1.80
2018-11-28T15:24:35.441Z,1.70
2018-11-28T15:27:09.280Z,1.60
2018-11-28T15:29:42.653Z,1.00
2018-11-28T15:32:17.512Z,1.90
2018-11-28T15:34:51.008Z,2.07
2018-11-28T15:37:27.014Z,2.37
2018-11-28T15:40:04.364Z,3.40
2018-11-28T15:42:38.907Z,0.87
2018-11-28T15:45:12.856Z,1.90
2018-11-28T15:47:47.272Z,0.87
2018-11-28T15:50:20.790Z,2.20
2018-11-28T15:52:54.863Z,1.47
2018-11-28T15:55:30.846Z,2.13
2018-11-28T15:58:08.770Z,0.83
2018-11-28T16:00:42.619Z,1.60
2018-11-28T16:03:16.463Z,1.57
2018-11-28T16:05:51.154Z,1.07
2018-11-28T16:08:25.223Z,1.47
2018-11-28T16:10:59.496Z,0.90
2018-11-28T16:13:34.587Z,0.40
2018-11-28T16:16:09.183Z,2.93
2018-11-28T16:18:49.308Z,0.80
2018-11-28T16:21:24.471Z,1.73
2018-11-28T16:23:58.438Z,2.83
2018-11-28T16:26:33.731Z,1.07
2018-11-28T16:29:09.098Z,2.70
2018-11-28T16:31:42.596Z,2.13
2018-11-28T16:34:16.586Z,2.00
2018-11-28T16:36:51.702Z,1.33
2018-11-28T16:39:29.396Z,2.87
2018-11-28T16:42:08.690Z,1.40
2018-11-28T16:47:25.775Z,1.43
2018-11-28T16:50:09.490Z,1.43
2018-11-28T16:52:53.261Z,1.17
2018-11-28T16:55:27.634Z,2.33
2018-11-28T16:58:01.360Z,2.90
2018-11-28T17:00:38.082Z,2.80
2018-11-28T17:08:09.116Z,2.50
2018-11-28T17:10:48.895Z,1.93
2018-11-28T17:13:27.585Z,1.00
2018-11-28T17:16:06.602Z,2.57
2018-11-28T17:18:41.376Z,3.13
2018-11-28T17:21:17.584Z,1.27
2018-11-28T17:23:52.150Z,0.80
2018-11-28T17:26:29.851Z,1.10
2018-11-28T17:29:03.351Z,1.33
2018-11-28T17:31:38.177Z,0.70
2018-11-28T17:34:13.481Z,2.47
2018-11-28T17:36:50.067Z,0.90
2018-11-28T17:39:24.467Z,0.50
2018-11-28T17:42:02.917Z,1.20
2018-11-28T17:44:37.342Z,0.73
2018-11-28T17:47:11.296Z,2.43
2018-11-28T17:49:45.490Z,3.47
2018-11-28T17:52:20.311Z,2.23
2018-11-28T17:54:53.750Z,2.90
2018-11-28T17:57:27.927Z,1.47
2018-11-28T18:00:04.389Z,0.97
2018-11-28T18:02:38.550Z,2.07
2018-11-28T18:05:15.349Z,0.20
2018-11-28T18:07:48.657Z,0.50
2018-11-28T18:10:26.702Z,1.10
2018-11-28T18:13:10.740Z,0.50
2018-11-28T18:15:47.172Z,0.30
2018-11-28T18:18:23.756Z,1.07
2018-11-28T18:20:59.405Z,0.20
2018-11-28T18:23:33.810Z,1.03
2018-11-28T18:26:24.014Z,0.33
2018-11-28T18:29:15.136Z,1.03
2018-11-28T18:31:53.370Z,1.60
2018-11-28T18:34:29.105Z,1.10
2018-11-28T18:37:03.389Z,1.87
2018-11-28T18:39:36.778Z,0.90
2018-11-28T18:42:12.067Z,0.93
2018-11-28T18:44:47.166Z,2.40
2018-11-28T18:47:21.685Z,1.13
2018-11-28T18:49:55.960Z,1.70
2018-11-28T18:52:31.507Z,1.97
2018-11-28T18:55:08.763Z,1.30
2018-11-28T18:57:43.631Z,2.00
2018-11-28T19:00:20.757Z,1.80
2018-11-28T19:02:55.401Z,2.00
2018-11-28T19:05:34.543Z,1.33
2018-11-28T19:08:08.814Z,2.27
2018-11-28T19:10:42.463Z,1.53
2018-11-28T19:13:16.132Z,1.83
2018-11-28T19:15:50.803Z,1.83
2018-11-28T19:18:25.493Z,0.90
2018-11-28T19:20:59.262Z,1.80
2018-11-28T19:23:32.625Z,2.90
2018-11-28T19:26:07.414Z,1.20
2018-11-28T19:28:42.794Z,2.03
2018-11-28T19:31:17.683Z,2.43
2018-11-28T19:33:51.202Z,1.10
2018-11-28T19:36:35.963Z,1.80
2018-11-28T19:39:12.653Z,2.57
2018-11-28T19:41:58.002Z,1.87
2018-11-28T19:44:33.738Z,1.00
2018-11-28T19:47:07.081Z,2.77
2018-11-28T19:49:44.169Z,2.10
2018-11-28T19:52:17.003Z,2.67
2018-11-28T19:54:56.433Z,1.70
2018-11-28T19:57:33.773Z,2.43
2018-11-28T20:00:12.965Z,1.80
2018-11-28T20:02:48.062Z,6.30
2018-11-28T20:05:24.215Z,1.87
2018-11-28T20:08:00.528Z,2.83
2018-11-28T20:10:43.007Z,2.43
2018-11-28T20:13:17.335Z,3.10
2018-11-28T20:15:52.911Z,2.57
2018-11-28T20:18:29.965Z,4.83
2018-11-28T20:21:02.883Z,5.07
2018-11-28T21:43:37.250Z,4.63
2018-11-28T21:46:14.169Z,4.30
2018-11-28T21:48:47.775Z,4.03
2018-11-28T21:51:21.529Z,4.40
2018-11-28T21:53:57.874Z,3.93
2018-11-28T21:56:35.212Z,3.63
2018-11-28T21:59:11.029Z,3.40
2018-11-28T22:01:48.408Z,3.83
2018-11-28T22:04:24.127Z,4.30
2018-11-28T22:06:58.897Z,3.30
2018-11-28T22:09:35.703Z,3.57
2018-11-28T22:12:12.962Z,5.37
2018-11-28T22:14:46.801Z,4.60
2018-11-28T22:17:22.299Z,6.33
2018-11-28T22:19:57.153Z,3.83
2018-11-28T22:22:33.281Z,4.63
2018-11-28T22:25:09.970Z,5.00
2018-11-28T22:27:42.811Z,4.93
2018-11-28T22:30:19.492Z,4.40
2018-11-28T22:32:52.896Z,2.27
2018-11-28T22:35:26.361Z,2.73
2018-11-28T22:37:59.619Z,5.70
2018-11-28T22:40:38.475Z,5.23
2018-11-28T22:43:12.274Z,5.73
2018-11-28T22:45:46.350Z,4.33
2018-11-28T22:48:20.558Z,4.57
2018-11-28T22:50:56.458Z,2.63
2018-11-28T22:53:32.615Z,3.00
2018-11-28T22:56:08.321Z,8.00
2018-11-28T22:58:41.768Z,7.20
2018-11-28T23:01:17.325Z,4.10
2018-11-28T23:03:52.515Z,6.47
2018-11-28T23:06:27.781Z,4.10
2018-11-28T23:09:01.992Z,5.30
2018-11-28T23:11:34.938Z,5.30
2018-11-28T23:14:11.298Z,4.03
2018-11-28T23:16:46.434Z,3.73
2018-11-28T23:19:20.906Z,6.77
2018-11-28T23:21:54.898Z,5.23
2018-11-28T23:24:29.835Z,8.27
2018-11-28T23:27:04.371Z,5.90
2018-11-28T23:29:39.003Z,5.13
2018-11-28T23:37:12.888Z,4.77
2018-11-28T23:39:47.861Z,6.23
2018-11-28T23:42:21.857Z,6.93
2018-11-28T23:44:54.906Z,5.73
2018-11-28T23:47:31.462Z,4.73
2018-11-28T23:50:06.799Z,5.37
2018-11-28T23:52:42.462Z,5.83
2018-11-28T23:55:36.646Z,5.33
2018-11-28T23:58:11.055Z,4.03
